Time;durP1;ratioP1;P1;durP2;ratioP2;P2;SDS_P1;SDS_P2;PMS_P1;PMS_P2;Temp;Humidity;BMP_temperature;BMP_pressure;BME280_temperature;BME280_humidity;BME280_pressure;Samples;Min_cycle;Max_cycle;Signal;HPM_P1;HPM_P2
2021/01/27 00:00:50;;;;;;;27.77;14.20;;;3.10;99.90;;;;;;5029482;28;20165;-86
2021/01/27 00:03:17;;;;;;;21.23;12.75;;;3.10;99.90;;;;;;5034672;28;20541;-87
2021/01/27 00:05:49;;;;;;;21.88;12.27;;;3.00;99.90;;;;;;5025102;28;20056;-87
2021/01/27 00:08:18;;;;;;;20.20;12.95;;;3.00;99.90;;;;;;5032784;28;20048;-85
2021/01/27 00:10:45;;;;;;;24.63;12.15;;;3.00;99.90;;;;;;5021811;28;20064;-85
2021/01/27 00:13:14;;;;;;;19.58;12.85;;;3.00;99.90;;;;;;5020999;28;20106;-85
2021/01/27 00:15:42;;;;;;;23.83;12.50;;;3.00;99.90;;;;;;5026383;28;21414;-87
2021/01/27 00:18:14;;;;;;;16.90;11.27;;;3.00;99.90;;;;;;5024864;28;20060;-86
2021/01/27 00:20:41;;;;;;;21.70;10.68;;;3.00;99.90;;;;;;5025647;28;20077;-86
2021/01/27 00:23:08;;;;;;;19.88;10.65;;;3.00;99.90;;;;;;5028068;28;20148;-87
2021/01/27 00:25:39;;;;;;;16.15;10.05;;;3.00;99.90;;;;;;5009992;28;20077;-86
2021/01/27 00:28:08;;;;;;;17.90;8.85;;;3.00;99.90;;;;;;5013374;28;20041;-86
2021/01/27 00:30:37;;;;;;;15.90;9.13;;;2.90;99.90;;;;;;5039456;28;20049;-87
2021/01/27 00:33:05;;;;;;;15.60;8.27;;;2.90;99.90;;;;;;5030817;28;20084;-87
2021/01/27 00:35:35;;;;;;;13.55;8.70;;;2.90;99.90;;;;;;5027562;28;20045;-87
2021/01/27 00:38:10;;;;;;;15.95;8.50;;;2.90;99.90;;;;;;5019457;28;20083;-87
2021/01/27 00:40:37;;;;;;;12.75;8.23;;;2.90;99.90;;;;;;4983695;28;21155;-87
2021/01/27 00:43:05;;;;;;;12.20;7.22;;;2.90;99.90;;;;;;4943665;28;20077;-87
2021/01/27 00:45:35;;;;;;;12.80;7.75;;;2.90;99.90;;;;;;5003862;28;20109;-87
2021/01/27 00:48:02;;;;;;;12.48;7.18;;;2.90;99.90;;;;;;5011816;28;20057;-87
2021/01/27 00:50:30;;;;;;;16.33;8.73;;;2.80;99.90;;;;;;5030172;28;20049;-87
2021/01/27 00:52:58;;;;;;;11.50;6.55;;;2.80;99.90;;;;;;5030147;28;20040;-88
2021/01/27 00:55:27;;;;;;;14.73;7.35;;;2.90;99.90;;;;;;5039796;28;20049;-87
2021/01/27 00:57:57;;;;;;;14.20;6.75;;;2.80;99.90;;;;;;5025570;28;20126;-87
2021/01/27 01:00:28;;;;;;;11.07;6.25;;;2.80;99.90;;;;;;5021436;28;20469;-87
2021/01/27 01:02:54;;;;;;;11.90;7.45;;;2.80;99.90;;;;;;5040612;28;20113;-87
2021/01/27 01:05:28;;;;;;;12.57;7.05;;;2.80;99.90;;;;;;5037359;28;20076;-87
2021/01/27 01:07:55;;;;;;;;;;;2.80;99.90;;;;;;5029522;28;20152;-87
2021/01/27 01:10:33;;;;;;;9.88;6.00;;;2.80;99.90;;;;;;5032422;28;20375;-87
2021/01/27 01:13:00;;;;;;;11.90;6.38;;;2.80;99.90;;;;;;5038545;28;20454;-86
2021/01/27 01:15:29;;;;;;;11.57;5.85;;;2.80;99.90;;;;;;5034216;28;20049;-87
2021/01/27 01:17:55;;;;;;;10.23;5.55;;;2.80;99.90;;;;;;5042830;28;20451;-87
2021/01/27 01:20:23;;;;;;;12.20;6.50;;;2.80;99.90;;;;;;5047696;28;20080;-86
2021/01/27 01:22:53;;;;;;;13.90;6.53;;;2.80;99.90;;;;;;5025508;28;20085;-87
2021/01/27 01:25:22;;;;;;;8.38;5.30;;;2.80;99.90;;;;;;5039463;28;20804;-87
2021/01/27 01:27:49;;;;;;;13.60;5.45;;;2.80;99.90;;;;;;5017985;28;20111;-86
2021/01/27 01:30:19;;;;;;;13.25;5.57;;;2.80;99.90;;;;;;5021886;28;20053;-87
2021/01/27 01:32:45;;;;;;;8.57;4.55;;;2.80;99.90;;;;;;5026033;28;20053;-87
2021/01/27 01:35:15;;;;;;;8.60;5.47;;;2.80;99.90;;;;;;5023973;28;20053;-87
2021/01/27 01:37:43;;;;;;;8.85;4.75;;;2.70;99.90;;;;;;5023147;28;20077;-87
2021/01/27 01:40:18;;;;;;;9.90;5.03;;;2.70;99.90;;;;;;5015973;28;20053;-87
2021/01/27 01:43:18;;;;;;;8.35;4.65;;;2.70;99.90;;;;;;4993886;28;20520;-87
2021/01/27 01:45:56;;;;;;;6.70;4.47;;;2.70;99.90;;;;;;5022456;28;20068;-86
2021/01/27 01:48:26;;;;;;;8.13;4.35;;;2.70;99.90;;;;;;5021715;28;20061;-87
2021/01/27 01:51:20;;;;;;;9.68;4.28;;;2.70;99.90;;;;;;5022669;28;20084;-87
2021/01/27 01:53:49;;;;;;;6.80;4.35;;;2.70;99.90;;;;;;5023523;28;20087;-87
2021/01/27 01:56:25;;;;;;;7.93;4.00;;;2.70;99.90;;;;;;5038634;28;20052;-87
2021/01/27 01:58:56;;;;;;;7.72;4.55;;;2.70;99.90;;;;;;5024661;28;20484;-87
2021/01/27 02:01:23;;;;;;;7.43;4.40;;;2.70;99.90;;;;;;5023303;28;20037;-86
2021/01/27 02:03:52;;;;;;;11.27;4.50;;;2.70;99.90;;;;;;5019823;28;20061;-87
2021/01/27 02:06:25;;;;;;;9.13;4.68;;;2.70;99.90;;;;;;5009929;28;20049;-86
2021/01/27 02:08:57;;;;;;;7.18;4.78;;;2.70;99.90;;;;;;5019784;28;20064;-86
2021/01/27 02:11:58;;;;;;;7.40;4.82;;;2.70;99.90;;;;;;4982473;28;20057;-86
2021/01/27 02:14:31;;;;;;;8.90;4.75;;;2.70;99.90;;;;;;5013665;28;20060;-87
2021/01/27 02:17:13;;;;;;;8.13;4.82;;;2.70;99.90;;;;;;4981308;28;20050;-87
2021/01/27 02:20:02;;;;;;;7.07;4.88;;;2.70;99.90;;;;;;5006888;28;20045;-86
2021/01/27 02:23:33;;;;;;;8.40;5.20;;;2.70;99.90;;;;;;5006795;28;20045;-86
2021/01/27 02:26:41;;;;;;;7.75;5.47;;;2.70;99.90;;;;;;4949980;28;20037;-86
2021/01/27 02:29:20;;;;;;;11.15;4.90;;;2.70;99.90;;;;;;5039507;28;20041;-86
2021/01/27 02:32:24;;;;;;;9.02;5.18;;;2.80;99.90;;;;;;5024532;28;20048;-88
2021/01/27 02:35:01;;;;;;;;;;;2.80;99.90;;;;;;5025325;28;20075;-86
2021/01/27 02:37:33;;;;;;;12.77;5.57;;;2.80;99.90;;;;;;4999751;28;20013;-87
2021/01/27 02:40:08;;;;;;;10.23;4.90;;;2.80;99.90;;;;;;5016665;28;20049;-87
2021/01/27 02:42:43;;;;;;;11.75;6.05;;;2.70;99.90;;;;;;5038588;28;20049;-87
2021/01/27 02:45:19;;;;;;;11.43;6.40;;;2.80;99.90;;;;;;5015056;28;20076;-85
2021/01/27 02:48:05;;;;;;;11.70;5.80;;;2.80;99.90;;;;;;5013738;28;20321;-85
2021/01/27 02:50:58;;;;;;;14.52;6.45;;;2.80;99.90;;;;;;5016775;28;20420;-87
2021/01/27 02:53:34;;;;;;;13.05;6.63;;;2.80;99.90;;;;;;5025480;28;21100;-86
2021/01/27 02:56:29;;;;;;;6.88;5.43;;;2.80;99.90;;;;;;5042480;28;20434;-86
2021/01/27 02:59:36;;;;;;;9.95;5.97;;;2.80;99.90;;;;;;5030333;28;20551;-86
2021/01/27 03:02:18;;;;;;;8.85;5.68;;;2.80;99.90;;;;;;4926694;28;20089;-86
2021/01/27 03:05:20;;;;;;;12.75;6.30;;;2.80;99.90;;;;;;5003100;28;20401;-87
2021/01/27 03:07:58;;;;;;;13.13;6.80;;;2.80;99.90;;;;;;5001747;28;20057;-86
2021/01/27 03:10:46;;;;;;;15.00;6.85;;;2.80;99.90;;;;;;4992446;28;20061;-86
2021/01/27 03:13:13;;;;;;;12.20;7.07;;;2.80;99.90;;;;;;4979572;28;20053;-86
2021/01/27 03:15:40;;;;;;;11.88;7.40;;;2.70;99.90;;;;;;4985808;28;20590;-86
2021/01/27 03:18:14;;;;;;;11.88;7.13;;;2.80;99.90;;;;;;4959679;28;20088;-86
2021/01/27 03:20:43;;;;;;;10.60;6.80;;;2.80;99.90;;;;;;4969489;28;20135;-86
2021/01/27 03:23:28;;;;;;;8.95;6.07;;;2.70;99.90;;;;;;4914608;28;20053;-87
2021/01/27 03:26:28;;;;;;;10.40;7.28;;;2.70;99.90;;;;;;4980791;28;20059;-86
2021/01/27 03:29:08;;;;;;;10.88;7.13;;;2.80;99.90;;;;;;4934781;28;20070;-87
2021/01/27 03:32:07;;;;;;;10.87;6.73;;;2.80;99.90;;;;;;4888012;28;20159;-87
2021/01/27 03:34:44;;;;;;;;;;;2.70;99.90;;;;;;4951804;28;20079;-86
2021/01/27 03:37:16;;;;;;;12.30;7.03;;;2.70;99.90;;;;;;4944436;28;19925;-87
2021/01/27 03:39:50;;;;;;;12.43;7.72;;;2.70;99.90;;;;;;4919523;28;20074;-87
2021/01/27 03:42:25;;;;;;;11.13;7.15;;;2.70;99.90;;;;;;4973543;28;20447;-86
2021/01/27 03:45:05;;;;;;;10.27;6.75;;;2.70;99.90;;;;;;5015361;28;20054;-86
2021/01/27 03:47:56;;;;;;;11.32;6.78;;;2.70;99.90;;;;;;5005478;28;20147;-87
2021/01/27 03:50:26;;;;;;;9.95;6.63;;;2.80;99.90;;;;;;5027730;28;20104;-87
2021/01/27 03:53:06;;;;;;;9.00;6.35;;;2.70;99.90;;;;;;5025861;28;20136;-87
2021/01/27 03:55:50;;;;;;;11.98;6.82;;;2.80;99.90;;;;;;5023896;28;20056;-87
2021/01/27 03:58:33;;;;;;;13.98;6.55;;;2.70;99.90;;;;;;5009773;28;20062;-87
2021/01/27 04:01:09;;;;;;;8.85;5.47;;;2.80;99.90;;;;;;4996671;28;20071;-87
2021/01/27 04:03:39;;;;;;;9.60;6.25;;;2.70;99.90;;;;;;5000066;28;20047;-86
2021/01/27 04:06:08;;;;;;;9.50;6.18;;;2.80;99.90;;;;;;4988282;28;20049;-87
2021/01/27 04:08:39;;;;;;;8.80;6.13;;;2.80;99.90;;;;;;5012061;28;20496;-87
2021/01/27 04:11:08;;;;;;;9.80;5.28;;;2.80;99.90;;;;;;4984846;28;20049;-86
2021/01/27 04:13:36;;;;;;;6.82;4.68;;;2.80;99.90;;;;;;4977709;28;20055;-86
2021/01/27 04:16:03;;;;;;;8.70;5.78;;;2.80;99.90;;;;;;4972812;28;20049;-87
2021/01/27 04:18:30;;;;;;;7.90;5.07;;;2.80;99.90;;;;;;4993688;28;20064;-87
2021/01/27 04:20:57;;;;;;;6.53;4.82;;;2.80;99.90;;;;;;4974730;28;20083;-87
2021/01/27 04:23:23;;;;;;;8.93;5.45;;;2.80;99.90;;;;;;4983151;28;20050;-87
2021/01/27 04:25:52;;;;;;;7.43;5.18;;;2.80;99.90;;;;;;4981937;28;20062;-87
2021/01/27 04:28:21;;;;;;;9.85;5.07;;;2.80;99.90;;;;;;4933101;28;20049;-87
2021/01/27 04:30:50;;;;;;;9.18;4.80;;;2.80;99.90;;;;;;4938283;28;20461;-88
2021/01/27 04:33:17;;;;;;;8.80;4.60;;;2.80;99.90;;;;;;4980199;28;20050;-86
2021/01/27 04:35:44;;;;;;;7.97;4.70;;;2.70;99.90;;;;;;5013574;28;20511;-86
2021/01/27 04:38:11;;;;;;;6.38;4.82;;;2.70;99.90;;;;;;5007652;28;20106;-86
2021/01/27 04:40:43;;;;;;;7.43;5.03;;;2.70;99.90;;;;;;5011799;28;20490;-87
2021/01/27 04:43:20;;;;;;;6.45;4.18;;;2.70;99.90;;;;;;4998305;28;20057;-86
2021/01/27 04:45:54;;;;;;;14.45;4.97;;;2.70;99.90;;;;;;5019898;28;20054;-86
2021/01/27 04:48:27;;;;;;;8.70;5.07;;;2.70;99.90;;;;;;5016682;28;20083;-87
2021/01/27 04:50:58;;;;;;;;;;;2.70;99.90;;;;;;5003190;28;20050;-87
2021/01/27 04:53:54;;;;;;;7.50;4.53;;;2.70;99.90;;;;;;5001103;28;20348;-86
2021/01/27 04:56:47;;;;;;;6.15;4.63;;;2.60;99.90;;;;;;5002478;28;20080;-86
2021/01/27 04:59:58;;;;;;;7.03;4.90;;;2.60;99.90;;;;;;5005973;28;20092;-87
2021/01/27 05:02:52;;;;;;;5.65;4.10;;;2.60;99.90;;;;;;4993172;28;20081;-87
2021/01/27 05:05:26;;;;;;;5.65;4.40;;;2.60;99.90;;;;;;5023234;28;20111;-86
2021/01/27 05:08:15;;;;;;;6.45;4.60;;;2.60;99.90;;;;;;4997375;28;20396;-87
2021/01/27 05:10:54;;;;;;;7.40;4.28;;;2.60;99.90;;;;;;5008670;28;20057;-88
2021/01/27 05:13:40;;;;;;;7.53;4.45;;;2.50;99.90;;;;;;5021939;28;20886;-87
2021/01/27 05:16:30;;;;;;;10.55;4.97;;;2.50;99.90;;;;;;5017427;28;20141;-87
2021/01/27 05:19:05;;;;;;;7.32;4.57;;;2.40;99.90;;;;;;5018848;28;20061;-86
2021/01/27 05:21:35;;;;;;;8.35;4.40;;;2.40;99.90;;;;;;5014312;28;20049;-87
2021/01/27 05:24:03;;;;;;;7.70;4.93;;;2.40;99.90;;;;;;5025583;28;20049;-87
2021/01/27 05:26:57;;;;;;;8.32;5.40;;;2.30;99.90;;;;;;5036284;28;20559;-87
2021/01/27 05:29:30;;;;;;;9.00;5.05;;;2.30;99.90;;;;;;5015652;28;21631;-87
2021/01/27 05:32:04;;;;;;;8.00;4.78;;;2.20;99.90;;;;;;5022816;28;20076;-86
2021/01/27 05:34:37;;;;;;;10.30;5.93;;;2.10;99.90;;;;;;5028462;28;20042;-86
2021/01/27 05:37:09;;;;;;;11.32;5.72;;;2.10;99.90;;;;;;5026490;28;20075;-88
2021/01/27 05:39:37;;;;;;;7.72;5.53;;;2.10;99.90;;;;;;5024631;28;20041;-88
2021/01/27 05:42:27;;;;;;;9.77;6.00;;;2.00;99.90;;;;;;5024192;28;20419;-84
2021/01/27 05:44:58;;;;;;;8.23;5.35;;;2.00;99.90;;;;;;5021938;28;20118;-85
2021/01/27 05:47:24;;;;;;;10.60;6.25;;;2.00;99.90;;;;;;5013508;28;20056;-85
2021/01/27 05:49:51;;;;;;;10.65;6.65;;;1.90;99.90;;;;;;5018389;28;20493;-85
2021/01/27 05:52:23;;;;;;;11.38;6.45;;;1.90;99.90;;;;;;5025661;28;20079;-85
2021/01/27 05:54:50;;;;;;;11.98;7.30;;;1.90;99.90;;;;;;5024984;28;20511;-85
2021/01/27 05:57:28;;;;;;;12.38;6.43;;;1.90;99.90;;;;;;5019457;28;20065;-85
2021/01/27 06:00:26;;;;;;;14.90;8.43;;;1.80;99.90;;;;;;5020729;28;20057;-86
2021/01/27 06:02:54;;;;;;;11.73;6.20;;;1.80;99.90;;;;;;5012712;28;20053;-86
2021/01/27 06:05:37;;;;;;;12.85;6.75;;;1.80;99.90;;;;;;4951784;28;20065;-87
2021/01/27 06:08:11;;;;;;;10.77;7.25;;;1.80;99.90;;;;;;5001585;28;20053;-86
2021/01/27 06:10:40;;;;;;;14.98;7.43;;;1.80;99.90;;;;;;4991299;28;20081;-86
2021/01/27 06:13:22;;;;;;;10.38;7.05;;;1.90;99.90;;;;;;5018450;28;20050;-86
2021/01/27 06:15:56;;;;;;;12.63;7.68;;;1.80;99.90;;;;;;4930382;28;20050;-86
2021/01/27 06:18:50;;;;;;;13.95;7.57;;;1.80;99.90;;;;;;4896113;28;20053;-87
2021/01/27 06:22:40;;;;;;;12.70;7.68;;;1.90;99.90;;;;;;4868832;28;20060;-87
2021/01/27 06:26:06;;;;;;;13.57;7.88;;;1.90;99.90;;;;;;4801346;29;20140;-87
2021/01/27 06:29:03;;;;;;;11.30;7.43;;;1.90;99.90;;;;;;5020000;28;20099;-87
2021/01/27 06:32:07;;;;;;;12.98;8.13;;;1.90;99.90;;;;;;5023747;28;20122;-87
2021/01/27 06:34:45;;;;;;;13.50;8.23;;;1.90;99.90;;;;;;5015454;28;20487;-88
2021/01/27 06:37:36;;;;;;;14.85;8.90;;;1.90;99.90;;;;;;5030245;28;20079;-87
2021/01/27 06:40:28;;;;;;;14.40;8.77;;;1.90;99.90;;;;;;5002994;28;20099;-86
2021/01/27 06:43:31;;;;;;;16.55;10.02;;;1.90;99.90;;;;;;5025888;28;20143;-87
2021/01/27 06:46:39;;;;;;;18.67;9.85;;;1.90;99.90;;;;;;4991884;28;20048;-86
2021/01/27 06:49:34;;;;;;;16.60;8.75;;;1.90;99.90;;;;;;4986133;28;20151;-87
2021/01/27 06:52:22;;;;;;;17.08;9.02;;;1.90;99.90;;;;;;5018114;28;20059;-86
2021/01/27 06:55:12;;;;;;;15.52;9.43;;;1.90;99.90;;;;;;5008271;28;20726;-86
2021/01/27 06:58:19;;;;;;;19.17;9.43;;;1.90;99.90;;;;;;5025290;28;20789;-86
2021/01/27 07:00:52;;;;;;;16.50;9.43;;;1.90;99.90;;;;;;5027828;28;20225;-86
2021/01/27 07:03:21;;;;;;;15.68;9.32;;;1.90;99.90;;;;;;4998716;28;20061;-85
2021/01/27 07:06:14;;;;;;;16.30;10.23;;;1.90;99.90;;;;;;5005920;28;20053;-86
2021/01/27 07:09:08;;;;;;;17.13;9.25;;;1.90;99.90;;;;;;4986294;28;20111;-87
2021/01/27 07:12:28;;;;;;;16.48;9.88;;;1.90;99.90;;;;;;4984165;28;20040;-87
2021/01/27 07:15:23;;;;;;;17.83;9.70;;;1.90;99.90;;;;;;4960120;28;20494;-87
2021/01/27 07:18:38;;;;;;;16.50;9.25;;;1.90;99.90;;;;;;4923964;28;20668;-87
2021/01/27 07:24:47;;;;;;;18.45;9.30;;;1.90;99.90;;;;;;4998411;28;20052;-76
2021/01/27 07:27:20;;;;;;;17.85;9.48;;;1.90;99.90;;;;;;5014605;28;20053;-79
2021/01/27 07:30:01;;;;;;;16.10;9.30;;;1.90;99.90;;;;;;5007649;28;20053;-77
2021/01/27 07:32:46;;;;;;;19.50;9.48;;;1.90;99.90;;;;;;4995876;28;20415;-77
2021/01/27 07:35:29;;;;;;;16.15;9.52;;;1.90;99.90;;;;;;5025110;28;20518;-77
2021/01/27 07:38:04;;;;;;;18.73;9.57;;;2.00;99.90;;;;;;5015723;28;20045;-77
2021/01/27 07:40:36;;;;;;;17.30;9.77;;;2.00;99.90;;;;;;5014741;28;20083;-79
2021/01/27 07:43:12;;;;;;;18.92;9.60;;;2.00;99.90;;;;;;5012879;28;20049;-78
2021/01/27 07:45:42;;;;;;;19.85;10.13;;;2.00;99.90;;;;;;4996774;28;21089;-77
2021/01/27 07:48:14;;;;;;;16.13;9.52;;;2.00;99.90;;;;;;5000111;28;20053;-77
2021/01/27 07:50:41;;;;;;;17.27;10.07;;;2.10;99.90;;;;;;5021744;28;20062;-78
2021/01/27 07:53:22;;;;;;;15.77;9.77;;;2.10;99.90;;;;;;4995216;28;20428;-78
2021/01/27 07:56:08;;;;;;;19.85;9.98;;;2.10;99.90;;;;;;5018241;28;20184;-79
2021/01/27 07:58:49;;;;;;;17.08;9.80;;;2.10;99.90;;;;;;4997599;28;20575;-79
2021/01/27 08:01:38;;;;;;;19.67;10.10;;;2.10;99.90;;;;;;5017939;28;20203;-80
2021/01/27 08:04:46;;;;;;;19.30;10.30;;;2.20;99.90;;;;;;5003112;28;20057;-80
2021/01/27 08:07:25;;;;;;;20.60;10.18;;;2.20;99.90;;;;;;4969251;28;20053;-80
2021/01/27 08:09:53;;;;;;;24.13;9.70;;;2.20;99.90;;;;;;5008057;28;20109;-79
2021/01/27 08:12:33;;;;;;;17.88;9.32;;;2.20;99.90;;;;;;5011642;28;20049;-79
2021/01/27 08:15:33;;;;;;;17.40;9.98;;;2.30;99.90;;;;;;5019657;28;20102;-79
2021/01/27 08:18:12;;;;;;;20.98;10.52;;;2.20;99.90;;;;;;5003134;28;20132;-79
2021/01/27 08:20:43;;;;;;;21.20;9.90;;;2.30;99.90;;;;;;5004628;28;20049;-79
2021/01/27 08:23:32;;;;;;;22.25;11.07;;;2.30;99.90;;;;;;5017450;28;20117;-81
2021/01/27 08:26:04;;;;;;;18.58;9.75;;;2.30;99.90;;;;;;5016920;28;20485;-79
2021/01/27 08:28:36;;;;;;;20.25;10.77;;;2.30;99.90;;;;;;5002102;28;20045;-78
2021/01/27 08:31:16;;;;;;;18.60;10.15;;;2.30;99.90;;;;;;5020827;28;20038;-80
2021/01/27 08:33:55;;;;;;;20.58;10.85;;;2.30;99.90;;;;;;5014583;28;20420;-83
2021/01/27 08:36:29;;;;;;;20.98;10.32;;;2.30;99.90;;;;;;5005534;28;20054;-78
2021/01/27 08:38:55;;;;;;;20.25;10.85;;;2.30;99.90;;;;;;5019206;28;20717;-78
2021/01/27 08:41:55;;;;;;;21.33;9.90;;;2.40;99.90;;;;;;5015020;28;20073;-78
2021/01/27 08:44:21;;;;;;;17.08;9.23;;;2.40;99.90;;;;;;5021359;28;20057;-78
2021/01/27 08:46:54;;;;;;;19.42;9.70;;;2.40;99.90;;;;;;5001417;28;20107;-78
2021/01/27 08:49:44;;;;;;;17.90;8.82;;;2.40;99.90;;;;;;5015590;28;20397;-76
2021/01/27 08:52:10;;;;;;;16.95;9.30;;;2.40;99.90;;;;;;5014065;28;20064;-78
2021/01/27 08:54:39;;;;;;;21.23;10.07;;;2.50;99.90;;;;;;5005547;28;20053;-80
2021/01/27 08:57:29;;;;;;;21.30;10.40;;;2.50;99.90;;;;;;5013223;28;20048;-79
2021/01/27 09:00:04;;;;;;;17.23;9.43;;;2.50;99.90;;;;;;5003475;28;20163;-79
2021/01/27 09:02:50;;;;;;;19.50;10.43;;;2.50;99.90;;;;;;5020228;28;20144;-78
2021/01/27 09:05:36;;;;;;;22.08;10.93;;;2.60;99.90;;;;;;5008746;28;20053;-78
2021/01/27 09:08:04;;;;;;;17.70;10.18;;;2.60;99.90;;;;;;5026190;28;20053;-80
2021/01/27 09:10:34;;;;;;;21.88;11.35;;;2.60;99.90;;;;;;5025844;28;20208;-78
2021/01/27 09:13:31;;;;;;;21.35;12.07;;;2.60;99.90;;;;;;5026655;28;20089;-82
2021/01/27 09:16:05;;;;;;;22.08;10.30;;;2.70;99.90;;;;;;5027182;28;20145;-82
2021/01/27 09:18:32;;;;;;;30.73;11.18;;;2.70;99.90;;;;;;5019162;28;20053;-79
2021/01/27 09:21:15;;;;;;;23.70;11.73;;;2.70;99.90;;;;;;5014613;28;20423;-78
2021/01/27 09:23:43;;;;;;;25.38;12.10;;;2.70;99.90;;;;;;5012935;28;20136;-79
2021/01/27 09:26:30;;;;;;;27.52;11.73;;;2.70;99.90;;;;;;5019108;28;20049;-81
2021/01/27 09:29:07;;;;;;;23.92;11.80;;;2.70;99.90;;;;;;5015647;28;20050;-80
2021/01/27 09:31:33;;;;;;;23.23;11.35;;;2.80;99.90;;;;;;5012449;28;20180;-78
2021/01/27 09:34:11;;;;;;;27.15;13.02;;;2.80;99.90;;;;;;5022630;28;20077;-81
2021/01/27 09:36:40;;;;;;;31.40;14.27;;;2.80;99.90;;;;;;5020303;28;20560;-78
2021/01/27 09:39:07;;;;;;;28.00;11.68;;;2.80;99.90;;;;;;5012219;28;20141;-79
2021/01/27 09:41:35;;;;;;;26.50;13.20;;;2.90;99.90;;;;;;5024381;28;20049;-80
2021/01/27 09:44:03;;;;;;;29.05;13.32;;;2.90;99.90;;;;;;5023363;28;20103;-79
2021/01/27 09:46:36;;;;;;;27.88;13.35;;;2.90;99.90;;;;;;5023690;28;20060;-79
2021/01/27 09:49:05;;;;;;;;;;;3.00;99.90;;;;;;4994606;28;20076;-78
2021/01/27 09:51:32;;;;;;;26.58;12.65;;;3.00;99.90;;;;;;5009062;28;20015;-81
2021/01/27 09:54:01;;;;;;;25.45;12.50;;;3.00;99.90;;;;;;5020358;28;20049;-79
2021/01/27 09:56:29;;;;;;;29.13;13.40;;;3.10;99.90;;;;;;5024778;28;20052;-78
2021/01/27 09:58:57;;;;;;;30.48;12.98;;;3.10;99.90;;;;;;5024853;28;20107;-81
2021/01/27 10:01:27;;;;;;;32.28;14.85;;;3.10;99.90;;;;;;4991105;28;20063;-80
2021/01/27 10:04:17;;;;;;;28.83;13.75;;;3.20;99.90;;;;;;5021965;28;20049;-80
2021/01/27 10:06:50;;;;;;;30.65;13.50;;;3.20;99.90;;;;;;5025338;28;20049;-80
2021/01/27 10:09:22;;;;;;;32.60;14.85;;;3.20;99.90;;;;;;5024398;28;20132;-79
2021/01/27 10:12:01;;;;;;;33.38;15.40;;;3.20;99.90;;;;;;5025313;28;20065;-80
2021/01/27 10:14:31;;;;;;;31.25;14.20;;;3.20;99.90;;;;;;5015096;28;20148;-80
2021/01/27 10:17:01;;;;;;;34.33;15.05;;;3.20;99.90;;;;;;5007198;28;20049;-80
2021/01/27 10:19:37;;;;;;;33.45;15.85;;;3.20;99.90;;;;;;4999099;28;20065;-79
2021/01/27 10:22:06;;;;;;;34.38;15.32;;;3.30;99.90;;;;;;5023575;28;20132;-78
2021/01/27 10:24:49;;;;;;;38.17;16.40;;;3.30;99.90;;;;;;4997217;28;20564;-80
2021/01/27 10:27:22;;;;;;;42.65;17.50;;;3.30;99.90;;;;;;5014689;28;20049;-80
2021/01/27 10:29:49;;;;;;;38.55;16.38;;;3.40;99.90;;;;;;5006001;28;20057;-79
2021/01/27 10:32:27;;;;;;;38.92;16.88;;;3.40;99.90;;;;;;5013818;28;20860;-79
2021/01/27 10:34:54;;;;;;;45.63;18.45;;;3.50;99.90;;;;;;5021091;28;20057;-80
2021/01/27 10:37:48;;;;;;;43.90;17.63;;;3.50;99.90;;;;;;5024928;28;20061;-79
2021/01/27 10:40:29;;;;;;;46.08;16.95;;;3.50;99.90;;;;;;5005537;28;20183;-79
2021/01/27 10:42:58;;;;;;;40.40;16.20;;;3.60;99.90;;;;;;5020736;28;20522;-80
2021/01/27 10:45:41;;;;;;;41.55;17.40;;;3.60;99.90;;;;;;4998538;28;20417;-79
2021/01/27 10:48:10;;;;;;;49.38;17.90;;;3.70;99.90;;;;;;5005471;28;20060;-80
2021/01/27 10:51:03;;;;;;;43.58;17.48;;;3.70;99.90;;;;;;5026214;28;20073;-79
2021/01/27 10:53:38;;;;;;;43.17;18.05;;;3.70;99.90;;;;;;5023369;28;20451;-77
2021/01/27 10:56:07;;;;;;;44.67;17.98;;;3.80;99.90;;;;;;4994329;28;20069;-80
2021/01/27 10:58:33;;;;;;;39.40;17.23;;;3.80;99.90;;;;;;5022954;28;20053;-78
2021/01/27 11:01:00;;;;;;;43.05;17.23;;;3.90;99.90;;;;;;5004000;28;20057;-80
2021/01/27 11:03:26;;;;;;;44.38;17.75;;;3.90;99.90;;;;;;5011808;28;20124;-79
2021/01/27 11:05:52;;;;;;;39.75;16.85;;;4.00;99.90;;;;;;5010632;28;20111;-79
2021/01/27 11:08:27;;;;;;;39.92;15.18;;;4.00;99.90;;;;;;5004674;28;20620;-79
2021/01/27 11:10:55;;;;;;;43.72;16.80;;;4.10;99.90;;;;;;5020789;28;20063;-79
2021/01/27 11:13:22;;;;;;;50.50;18.23;;;4.10;99.90;;;;;;5015857;28;20063;-79
2021/01/27 11:15:49;;;;;;;44.85;17.38;;;4.20;99.90;;;;;;5018139;28;20111;-78
2021/01/27 11:18:15;;;;;;;48.75;19.27;;;4.30;99.90;;;;;;5009333;28;20104;-78
2021/01/27 11:20:42;;;;;;;34.75;16.50;;;4.40;99.90;;;;;;5004789;28;20052;-77
2021/01/27 11:23:09;;;;;;;41.08;17.63;;;4.40;99.90;;;;;;5016797;28;20053;-78
2021/01/27 11:25:35;;;;;;;40.90;16.58;;;4.50;99.90;;;;;;5019525;28;20050;-77
2021/01/27 11:28:01;;;;;;;39.58;15.75;;;4.60;99.90;;;;;;5019392;28;20049;-78
2021/01/27 11:30:29;;;;;;;41.13;16.83;;;4.60;99.90;;;;;;5021699;28;20060;-78
2021/01/27 11:32:55;;;;;;;36.53;15.00;;;4.70;99.90;;;;;;5021068;28;20408;-78
2021/01/27 11:35:23;;;;;;;41.92;17.17;;;4.70;99.90;;;;;;5019476;28;20061;-77
2021/01/27 11:37:51;;;;;;;42.72;16.40;;;4.80;99.90;;;;;;5000251;28;20137;-80
2021/01/27 11:40:20;;;;;;;49.45;17.90;;;4.90;99.90;;;;;;5020343;28;20049;-81
2021/01/27 11:42:46;;;;;;;44.35;17.25;;;4.90;99.90;;;;;;4995091;28;20522;-78
2021/01/27 11:45:14;;;;;;;44.17;16.67;;;5.00;99.90;;;;;;5011503;28;20493;-81
2021/01/27 11:47:40;;;;;;;37.38;15.65;;;5.10;99.90;;;;;;5003192;28;20049;-80
2021/01/27 11:50:08;;;;;;;36.22;16.23;;;5.30;99.90;;;;;;5005533;28;20040;-79
2021/01/27 11:52:34;;;;;;;35.70;15.32;;;5.30;99.90;;;;;;5021548;28;20059;-80
2021/01/27 11:55:00;;;;;;;41.97;17.10;;;5.50;99.90;;;;;;5010242;28;20050;-79
2021/01/27 11:57:27;;;;;;;44.17;16.40;;;5.50;99.90;;;;;;5002909;28;20129;-79
2021/01/27 11:59:53;;;;;;;36.42;16.75;;;5.70;99.90;;;;;;5006999;28;20065;-78
2021/01/27 12:02:19;;;;;;;33.33;15.20;;;5.70;99.90;;;;;;5017807;28;20050;-77
2021/01/27 12:04:46;;;;;;;30.88;14.70;;;5.70;99.90;;;;;;5014108;28;20053;-78
2021/01/27 12:07:12;;;;;;;35.17;15.60;;;5.70;99.90;;;;;;5016563;28;20054;-77
2021/01/27 12:09:38;;;;;;;35.72;15.07;;;5.70;99.90;;;;;;5003322;28;20045;-78
2021/01/27 12:12:08;;;;;;;36.05;14.65;;;5.70;99.90;;;;;;5023609;28;20049;-78
2021/01/27 12:14:35;;;;;;;37.45;15.02;;;5.70;99.90;;;;;;5026097;28;20100;-79
2021/01/27 12:17:02;;;;;;;36.75;15.25;;;5.70;99.90;;;;;;5006818;28;21991;-79
2021/01/27 12:19:29;;;;;;;39.78;15.55;;;5.70;99.90;;;;;;5016621;28;20045;-77
2021/01/27 12:21:55;;;;;;;44.13;15.18;;;5.70;99.90;;;;;;4999856;28;20067;-79
2021/01/27 12:24:23;;;;;;;38.40;14.68;;;5.70;99.90;;;;;;5000908;28;20136;-77
2021/01/27 12:26:50;;;;;;;29.73;13.60;;;5.70;99.90;;;;;;5014958;28;20057;-78
2021/01/27 12:29:17;;;;;;;39.65;15.20;;;5.70;99.90;;;;;;5028852;28;20406;-79
2021/01/27 12:31:44;;;;;;;35.67;14.65;;;5.70;99.90;;;;;;5021685;28;20049;-78
2021/01/27 12:34:11;;;;;;;39.67;14.68;;;5.80;99.90;;;;;;5021181;28;20073;-78
2021/01/27 12:36:38;;;;;;;34.88;14.05;;;5.90;99.90;;;;;;5015747;28;20068;-78
2021/01/27 12:39:05;;;;;;;40.50;14.63;;;6.00;99.90;;;;;;5034264;28;20058;-78
2021/01/27 12:41:33;;;;;;;36.05;13.52;;;6.10;99.90;;;;;;5024709;28;20049;-78
2021/01/27 12:43:59;;;;;;;36.80;13.32;;;6.20;99.90;;;;;;5025404;28;20056;-78
2021/01/27 12:46:26;;;;;;;29.60;13.85;;;6.20;99.90;;;;;;5023149;28;20049;-78
2021/01/27 12:48:53;;;;;;;30.45;13.48;;;6.30;99.90;;;;;;5023166;28;20505;-80
2021/01/27 12:51:19;;;;;;;35.50;13.60;;;6.30;99.90;;;;;;5004700;28;20496;-78
2021/01/27 12:53:46;;;;;;;41.05;13.57;;;6.30;99.90;;;;;;5007985;28;20060;-79
2021/01/27 12:56:13;;;;;;;33.35;13.73;;;6.40;99.90;;;;;;5025166;28;20049;-79
2021/01/27 12:58:40;;;;;;;32.90;12.90;;;6.40;99.90;;;;;;5025400;28;20831;-78
2021/01/27 13:01:06;;;;;;;42.92;14.32;;;6.40;99.90;;;;;;5016923;28;20054;-81
2021/01/27 13:03:33;;;;;;;35.28;13.30;;;6.40;99.90;;;;;;5024011;28;20057;-80
2021/01/27 13:05:59;;;;;;;32.38;12.82;;;6.40;99.90;;;;;;4996354;28;20615;-79
2021/01/27 13:08:25;;;;;;;35.70;11.77;;;6.40;99.90;;;;;;5000391;28;20439;-79
2021/01/27 13:10:51;;;;;;;39.03;13.23;;;6.50;99.90;;;;;;5025916;28;20056;-78
2021/01/27 13:13:18;;;;;;;34.63;12.65;;;6.50;99.90;;;;;;5014260;28;20061;-78
2021/01/27 13:15:44;;;;;;;31.98;12.48;;;6.50;99.90;;;;;;5020376;28;20072;-80
2021/01/27 13:18:11;;;;;;;30.08;12.25;;;6.50;99.90;;;;;;5009233;28;25373;-81
2021/01/27 13:20:40;;;;;;;38.13;12.27;;;6.50;99.90;;;;;;5004950;28;20484;-78
2021/01/27 13:23:09;;;;;;;31.73;12.10;;;6.50;99.90;;;;;;5009724;28;20053;-80
2021/01/27 13:25:35;;;;;;;33.03;12.35;;;6.60;99.90;;;;;;4986014;28;20118;-80
2021/01/27 13:28:03;;;;;;;32.67;11.95;;;6.60;99.90;;;;;;4997038;28;20060;-79
2021/01/27 13:30:31;;;;;;;44.67;12.32;;;6.60;99.90;;;;;;5018786;28;20057;-79
2021/01/27 13:32:57;;;;;;;28.02;11.20;;;6.60;99.90;;;;;;5004554;28;20053;-79